createdAt,value
2022-11-05T00:00:06.346Z,18.40
2022-11-05T00:02:51.431Z,17.92
2022-11-05T00:05:50.211Z,18.48
2022-11-05T00:08:34.890Z,18.20
2022-11-05T00:11:01.379Z,17.35
2022-11-05T00:13:46.397Z,18.65
2022-11-05T00:16:31.373Z,16.77
2022-11-05T00:19:06.851Z,17.45
2022-11-05T00:21:57.166Z,17.65
2022-11-05T00:24:42.609Z,18.27
2022-11-05T00:27:09.312Z,17.20
2022-11-05T00:29:35.799Z,17.88
2022-11-05T00:32:02.235Z,17.40
2022-11-05T00:34:28.696Z,19.40
2022-11-05T00:36:55.838Z,20.27
2022-11-05T00:39:22.243Z,19.58
2022-11-05T00:42:08.619Z,19.08
2022-11-05T00:44:53.539Z,19.10
2022-11-05T00:47:38.385Z,19.60
2022-11-05T00:50:05.096Z,21.17
2022-11-05T00:52:50.169Z,19.83
2022-11-05T00:55:16.624Z,21.40
2022-11-05T00:57:42.988Z,20.17
2022-11-05T01:00:11.102Z,20.50
2022-11-05T01:02:37.578Z,20.92
2022-11-05T01:05:04.378Z,20.58
2022-11-05T01:07:30.748Z,20.73
2022-11-05T01:09:57.165Z,20.13
2022-11-05T01:12:23.604Z,21.25
2022-11-05T01:14:49.981Z,21.13
2022-11-05T01:17:16.862Z,21.67
2022-11-05T01:19:43.269Z,20.02
2022-11-05T01:22:09.676Z,20.35
2022-11-05T01:24:36.057Z,20.45
2022-11-05T01:27:02.551Z,20.35
2022-11-05T01:29:28.930Z,19.25
2022-11-05T01:31:55.312Z,19.15
2022-11-05T01:34:21.701Z,18.25
2022-11-05T01:36:48.069Z,19.38
2022-11-05T01:39:14.519Z,18.42
2022-11-05T01:41:40.903Z,18.83
2022-11-05T01:44:47.820Z,19.58
2022-11-05T01:47:21.880Z,18.38
2022-11-05T01:49:48.356Z,18.33
2022-11-05T01:52:14.836Z,19.08
2022-11-05T01:54:41.270Z,19.80
2022-11-05T01:57:10.137Z,19.67
2022-11-05T01:59:39.829Z,19.55
2022-11-05T02:02:07.795Z,18.75
2022-11-05T02:04:55.642Z,19.45
2022-11-05T02:07:23.616Z,19.20
2022-11-05T02:10:01.949Z,18.45
2022-11-05T02:12:31.797Z,20.15
2022-11-05T02:14:58.679Z,17.70
2022-11-05T02:17:47.969Z,17.95
2022-11-05T02:20:23.552Z,18.35
2022-11-05T02:23:26.249Z,17.88
2022-11-05T02:26:07.859Z,17.05
2022-11-05T02:28:49.581Z,16.40
2022-11-05T02:31:27.130Z,17.48
2022-11-05T02:34:04.088Z,16.73
2022-11-05T02:36:46.808Z,17.55
2022-11-05T02:39:21.862Z,16.70
2022-11-05T02:42:04.725Z,15.57
2022-11-05T02:44:47.527Z,15.80
2022-11-05T02:47:32.701Z,15.05
2022-11-05T02:50:39.188Z,15.40
2022-11-05T02:53:18.605Z,15.63
2022-11-05T02:55:59.657Z,15.77
2022-11-05T02:58:29.380Z,15.18
2022-11-05T03:00:56.954Z,13.98
2022-11-05T03:03:39.383Z,14.02
2022-11-05T03:06:20.943Z,13.13
2022-11-05T03:09:06.111Z,13.90
2022-11-05T03:11:41.663Z,14.10
2022-11-05T03:14:40.622Z,14.10
2022-11-05T03:17:43.999Z,14.05
2022-11-05T03:20:18.933Z,13.30
2022-11-05T03:22:52.357Z,13.25
2022-11-05T03:25:21.939Z,14.20
2022-11-05T03:27:52.896Z,13.50
2022-11-05T03:30:19.799Z,14.00
2022-11-05T03:32:55.116Z,13.73
2022-11-05T03:35:25.067Z,14.13
2022-11-05T03:37:55.069Z,13.82
2022-11-05T03:40:22.540Z,14.02
2022-11-05T03:42:52.572Z,13.90
2022-11-05T03:45:22.360Z,14.63
2022-11-05T03:47:50.822Z,14.25
2022-11-05T03:50:42.307Z,14.13
2022-11-05T03:53:42.898Z,14.15
2022-11-05T03:56:13.188Z,13.60
2022-11-05T03:58:44.086Z,13.73
2022-11-05T04:01:10.629Z,12.68
2022-11-05T04:03:37.138Z,12.70
2022-11-05T04:06:23.986Z,12.40
2022-11-05T04:09:09.526Z,13.73
2022-11-05T04:11:54.596Z,13.73
2022-11-05T04:14:21.049Z,14.38
2022-11-05T04:17:05.829Z,15.30
2022-11-05T04:19:52.613Z,16.85
2022-11-05T04:22:37.284Z,18.35
2022-11-05T04:25:03.977Z,20.52
2022-11-05T04:27:30.421Z,19.80
2022-11-05T04:30:15.304Z,20.45
2022-11-05T04:32:41.732Z,20.85
2022-11-05T04:35:08.168Z,22.98
2022-11-05T04:37:34.550Z,24.27
2022-11-05T04:40:01.004Z,25.05
2022-11-05T04:42:28.045Z,26.15
2022-11-05T04:44:54.447Z,25.85
2022-11-05T04:47:20.818Z,27.17
2022-11-05T04:49:47.199Z,27.40
2022-11-05T04:52:13.853Z,25.48
2022-11-05T04:54:40.220Z,27.98
2022-11-05T04:57:06.659Z,27.27
2022-11-05T04:59:33.031Z,26.75
2022-11-05T05:01:59.430Z,29.02
2022-11-05T05:04:25.908Z,28.27
2022-11-05T05:06:52.328Z,28.38
2022-11-05T05:09:18.728Z,28.17
2022-11-05T05:11:45.269Z,27.92
2022-11-05T05:14:11.690Z,27.80
2022-11-05T05:16:38.089Z,28.23
2022-11-05T05:19:04.487Z,30.08
2022-11-05T05:21:40.344Z,29.90
2022-11-05T05:24:13.786Z,28.50
2022-11-05T05:26:45.614Z,26.63
2022-11-05T05:29:12.481Z,27.67
2022-11-05T05:31:39.273Z,28.63
2022-11-05T05:34:06.885Z,30.05
2022-11-05T05:36:33.499Z,28.75
2022-11-05T05:38:59.932Z,30.52
2022-11-05T05:41:26.364Z,31.50
2022-11-05T05:43:52.848Z,31.35
2022-11-05T05:46:19.753Z,33.60
2022-11-05T05:48:51.019Z,30.92
2022-11-05T05:51:17.901Z,32.42
2022-11-05T05:53:44.401Z,33.30
2022-11-05T05:56:11.114Z,31.83
2022-11-05T05:58:38.661Z,33.10
2022-11-05T06:01:17.232Z,34.45
2022-11-05T06:03:45.285Z,34.72
2022-11-05T06:06:15.556Z,34.08
2022-11-05T06:08:42.215Z,35.55
2022-11-05T06:11:09.077Z,37.33
2022-11-05T06:13:36.089Z,36.33
2022-11-05T06:16:09.259Z,37.20
2022-11-05T06:18:35.988Z,37.00
2022-11-05T06:21:10.334Z,38.55
2022-11-05T06:23:38.372Z,39.13
2022-11-05T06:26:07.200Z,37.65
2022-11-05T06:28:34.475Z,36.10
2022-11-05T06:31:01.106Z,37.63
2022-11-05T06:33:28.024Z,37.83
2022-11-05T06:35:54.798Z,34.67
2022-11-05T06:38:21.167Z,38.28
2022-11-05T06:40:47.543Z,39.35
2022-11-05T06:43:14.366Z,38.05
2022-11-05T06:45:41.041Z,38.65
2022-11-05T06:48:07.504Z,42.72
2022-11-05T06:50:33.964Z,41.88
2022-11-05T06:53:02.501Z,40.35
2022-11-05T06:55:30.353Z,44.13
2022-11-05T06:57:57.281Z,43.03
2022-11-05T07:00:24.157Z,40.17
2022-11-05T07:02:50.607Z,42.70
2022-11-05T07:05:17.094Z,43.72
2022-11-05T07:07:44.717Z,45.38
2022-11-05T07:10:16.217Z,46.05
2022-11-05T07:12:43.075Z,43.58
2022-11-05T07:15:11.295Z,37.85
2022-11-05T07:17:40.358Z,38.78
2022-11-05T07:20:08.048Z,39.40
2022-11-05T07:22:35.385Z,39.40
2022-11-05T07:25:01.964Z,38.40
2022-11-05T07:27:28.715Z,39.25
2022-11-05T07:29:55.094Z,40.55
2022-11-05T07:32:21.482Z,42.25
2022-11-05T07:34:47.930Z,41.30
2022-11-05T07:37:16.568Z,41.88
2022-11-05T07:39:43.079Z,44.22
2022-11-05T07:42:13.422Z,44.85
2022-11-05T07:44:39.819Z,45.75
2022-11-05T07:47:06.201Z,44.75
2022-11-05T07:49:32.590Z,46.30
2022-11-05T07:51:58.967Z,46.20
2022-11-05T07:54:26.569Z,45.42
2022-11-05T07:56:53.037Z,46.92
2022-11-05T07:59:19.538Z,45.95
2022-11-05T08:01:45.982Z,47.83
2022-11-05T08:04:12.668Z,48.28
2022-11-05T08:06:39.063Z,46.90
2022-11-05T08:09:05.598Z,47.78
2022-11-05T08:11:32.242Z,48.15
2022-11-05T08:13:58.636Z,46.05
2022-11-05T08:16:25.420Z,45.55
2022-11-05T08:18:51.947Z,43.78
2022-11-05T08:21:18.359Z,44.78
2022-11-05T08:23:45.304Z,42.05
2022-11-05T08:26:11.696Z,42.28
2022-11-05T08:28:38.094Z,43.03
2022-11-05T08:31:04.599Z,42.65
2022-11-05T08:33:31.468Z,43.42
2022-11-05T08:36:01.870Z,41.63
2022-11-05T08:38:28.266Z,40.22
2022-11-05T08:40:57.374Z,41.30
2022-11-05T08:43:24.055Z,40.45
2022-11-05T08:45:50.478Z,39.90
2022-11-05T08:48:18.324Z,36.55
2022-11-05T08:50:46.344Z,37.20
2022-11-05T08:53:13.720Z,37.13
2022-11-05T08:55:40.770Z,35.65
2022-11-05T08:58:12.319Z,36.70
2022-11-05T09:00:39.537Z,37.03
2022-11-05T09:03:07.196Z,38.50
2022-11-05T09:05:37.723Z,37.75
2022-11-05T09:08:12.604Z,39.13
2022-11-05T09:10:40.016Z,38.63
2022-11-05T09:13:07.050Z,39.20
2022-11-05T09:15:33.821Z,41.58
2022-11-05T09:18:00.276Z,42.17
2022-11-05T09:20:26.732Z,42.45
2022-11-05T09:22:53.240Z,47.78
2022-11-05T09:25:19.726Z,48.40
2022-11-05T09:27:46.150Z,49.90
2022-11-05T09:30:13.316Z,50.78
2022-11-05T09:32:40.001Z,52.90
2022-11-05T09:35:07.295Z,52.40
2022-11-05T09:37:33.729Z,52.25
2022-11-05T09:40:00.113Z,53.90
2022-11-05T09:42:31.232Z,52.15
2022-11-05T09:45:02.358Z,52.75
2022-11-05T09:47:37.944Z,53.80
2022-11-05T09:50:08.493Z,51.45
2022-11-05T09:52:34.913Z,53.42
2022-11-05T09:55:03.861Z,53.78
2022-11-05T09:57:40.988Z,53.55
2022-11-05T10:00:08.570Z,53.60
2022-11-05T10:02:42.931Z,55.08
2022-11-05T10:05:11.874Z,53.00
2022-11-05T10:07:45.543Z,51.08
2022-11-05T10:10:40.324Z,51.90
2022-11-05T10:13:45.179Z,49.72
2022-11-05T10:16:15.625Z,48.95
2022-11-05T10:18:44.823Z,48.63
2022-11-05T10:21:32.273Z,46.55
2022-11-05T10:24:18.897Z,44.75
2022-11-05T10:26:51.032Z,42.67
2022-11-05T10:29:25.872Z,40.60
2022-11-05T10:31:53.690Z,38.22
2022-11-05T10:34:21.361Z,36.75
2022-11-05T10:36:48.372Z,37.10
2022-11-05T10:39:17.393Z,38.35
2022-11-05T10:41:52.736Z,35.40
2022-11-05T10:44:41.022Z,34.17
2022-11-05T10:47:32.258Z,32.13
2022-11-05T10:50:00.809Z,31.80
2022-11-05T10:52:33.277Z,30.33
2022-11-05T10:55:02.286Z,28.35
2022-11-05T10:57:33.116Z,27.83
2022-11-05T11:00:14.997Z,26.90
2022-11-05T11:03:01.748Z,25.57
2022-11-05T11:05:35.881Z,24.48
2022-11-05T11:08:11.415Z,23.70
2022-11-05T11:11:01.338Z,20.92
2022-11-05T11:13:30.376Z,19.70
2022-11-05T11:16:19.818Z,19.63
2022-11-05T11:18:46.198Z,18.65
2022-11-05T11:21:14.740Z,18.48
2022-11-05T11:23:42.470Z,16.95
2022-11-05T11:26:10.188Z,15.40
2022-11-05T11:29:00.923Z,13.23
2022-11-05T11:31:29.656Z,13.10
2022-11-05T11:34:02.542Z,10.88
2022-11-05T11:36:44.542Z,10.02
2022-11-05T11:39:16.541Z,9.63
2022-11-05T11:41:44.091Z,8.25
2022-11-05T11:44:19.975Z,8.73
2022-11-05T11:46:49.736Z,8.50
2022-11-05T11:49:44.119Z,7.90
2022-11-05T11:52:30.779Z,7.65
2022-11-05T11:55:21.949Z,8.38
2022-11-05T11:57:49.711Z,8.05
2022-11-05T12:00:17.492Z,8.82
2022-11-05T12:03:11.113Z,6.05
2022-11-05T12:05:45.031Z,6.57
2022-11-05T12:08:22.798Z,6.32
2022-11-05T12:11:29.452Z,5.97
2022-11-05T12:13:59.867Z,5.80
2022-11-05T12:16:49.612Z,6.03
2022-11-05T12:19:48.361Z,5.38
2022-11-05T12:22:39.174Z,5.80
2022-11-05T12:25:17.778Z,6.05
2022-11-05T12:28:07.327Z,6.10
2022-11-05T12:30:42.950Z,6.47
2022-11-05T12:33:37.108Z,5.70
2022-11-05T12:36:08.825Z,6.05
2022-11-05T12:39:19.303Z,6.23
2022-11-05T12:41:54.085Z,5.90
2022-11-05T12:44:37.162Z,5.57
2022-11-05T12:47:21.788Z,5.63
2022-11-05T12:50:04.655Z,5.88
2022-11-05T12:53:10.121Z,6.00
2022-11-05T12:55:47.094Z,6.35
2022-11-05T12:58:21.880Z,5.85
2022-11-05T13:00:55.987Z,5.78
2022-11-05T13:03:42.713Z,6.43
2022-11-05T13:06:17.457Z,6.63
2022-11-05T13:08:48.683Z,6.60
2022-11-05T13:11:25.369Z,6.63
2022-11-05T13:14:00.465Z,6.53
2022-11-05T13:16:34.242Z,7.05
2022-11-05T13:19:26.639Z,6.32
2022-11-05T13:22:00.763Z,6.07
2022-11-05T13:24:31.282Z,6.93
2022-11-05T13:27:12.957Z,5.85
2022-11-05T13:29:45.566Z,6.60
2022-11-05T13:34:55.615Z,7.80
2022-11-05T13:37:44.990Z,7.20
2022-11-05T13:40:13.906Z,7.50
2022-11-05T13:43:07.796Z,6.75
2022-11-05T13:45:57.373Z,6.65
2022-11-05T13:48:54.740Z,6.57
2022-11-05T13:51:38.646Z,6.97
2022-11-05T13:54:42.768Z,6.88
2022-11-05T13:57:34.583Z,6.82
2022-11-05T14:00:17.343Z,6.88
2022-11-05T14:05:24.409Z,6.90
2022-11-05T14:07:51.431Z,7.35
2022-11-05T14:10:31.461Z,6.43
2022-11-05T14:12:59.797Z,6.95
2022-11-05T14:15:30.350Z,6.47
2022-11-05T14:18:20.374Z,6.30
2022-11-05T14:20:59.119Z,5.72
2022-11-05T14:23:25.745Z,6.60
2022-11-05T14:25:55.873Z,6.70
2022-11-05T14:28:34.359Z,6.60
2022-11-05T14:31:41.178Z,6.68
2022-11-05T14:34:10.559Z,7.20
2022-11-05T14:36:39.080Z,6.60
2022-11-05T14:39:26.912Z,6.72
2022-11-05T14:41:57.238Z,6.40
2022-11-05T14:44:24.891Z,6.22
2022-11-05T14:46:53.599Z,6.20
2022-11-05T14:49:33.336Z,6.03
2022-11-05T14:52:00.905Z,6.53
2022-11-05T14:55:05.867Z,6.00
2022-11-05T14:57:41.847Z,5.82
2022-11-05T15:00:41.860Z,6.30
2022-11-05T15:03:26.759Z,5.28
2022-11-05T15:06:04.583Z,5.38
2022-11-05T15:08:36.255Z,5.18
2022-11-05T15:11:16.154Z,6.00
2022-11-05T15:13:49.035Z,5.60
2022-11-05T15:16:23.728Z,5.65
2022-11-05T15:18:51.145Z,5.25
2022-11-05T15:21:18.418Z,4.63
2022-11-05T15:23:46.740Z,5.45
2022-11-05T15:26:29.039Z,5.90
2022-11-05T15:28:56.091Z,5.93
2022-11-05T15:31:30.815Z,5.05
2022-11-05T15:34:17.963Z,5.00
2022-11-05T15:37:00.018Z,5.20
2022-11-05T15:39:41.473Z,5.57
2022-11-05T15:42:16.599Z,5.53
2022-11-05T15:44:48.407Z,5.82
2022-11-05T15:47:21.790Z,5.63
2022-11-05T15:49:56.296Z,5.68
2022-11-05T15:52:33.430Z,6.72
2022-11-05T15:55:19.226Z,6.15
2022-11-05T15:57:51.594Z,6.60
2022-11-05T16:00:29.535Z,6.35
2022-11-05T16:02:58.551Z,6.18
2022-11-05T16:05:29.904Z,6.50
2022-11-05T16:08:00.696Z,6.28
2022-11-05T16:10:35.620Z,6.78
2022-11-05T16:13:37.397Z,6.28
2022-11-05T16:16:23.304Z,6.57
2022-11-05T16:18:49.702Z,6.22
2022-11-05T16:21:18.865Z,6.55
2022-11-05T16:23:48.217Z,6.63
2022-11-05T16:29:33.462Z,6.50
2022-11-05T16:32:01.731Z,6.82
2022-11-05T16:34:33.757Z,6.68
2022-11-05T16:37:00.264Z,7.10
2022-11-05T16:39:26.684Z,7.07
2022-11-05T16:41:53.382Z,7.57
2022-11-05T16:44:19.799Z,7.57
2022-11-05T16:46:48.494Z,7.35
2022-11-05T16:49:15.881Z,8.77
2022-11-05T16:51:43.261Z,8.85
2022-11-05T16:54:09.917Z,6.82
2022-11-05T16:56:36.803Z,7.25
2022-11-05T16:59:04.119Z,6.18
2022-11-05T17:01:30.590Z,6.30
2022-11-05T17:03:57.094Z,6.63
2022-11-05T17:06:23.451Z,6.72
2022-11-05T17:08:49.859Z,6.03
2022-11-05T17:11:18.190Z,6.75
2022-11-05T17:13:44.970Z,6.55
2022-11-05T17:16:13.084Z,5.93
2022-11-05T17:18:40.389Z,6.85
2022-11-05T17:21:07.602Z,6.72
2022-11-05T17:23:34.540Z,6.78
2022-11-05T17:26:03.504Z,6.60
2022-11-05T17:28:30.378Z,7.63
2022-11-05T17:31:01.876Z,7.10
2022-11-05T17:33:29.186Z,7.38
2022-11-05T17:35:56.079Z,7.88
2022-11-05T17:38:23.999Z,7.80
2022-11-05T17:40:50.583Z,9.98
2022-11-05T17:43:17.375Z,8.45
2022-11-05T17:45:47.109Z,7.95
2022-11-05T17:48:14.306Z,7.10
2022-11-05T17:50:46.229Z,7.05
2022-11-05T17:53:13.493Z,6.60
2022-11-05T17:55:41.775Z,5.97
2022-11-05T17:58:08.600Z,5.97
2022-11-05T18:00:35.868Z,6.88
2022-11-05T18:03:02.336Z,6.90
2022-11-05T18:05:30.791Z,7.05
2022-11-05T18:07:57.992Z,6.57
2022-11-05T18:10:24.847Z,6.18
2022-11-05T18:12:51.556Z,6.72
2022-11-05T18:15:18.368Z,6.30
2022-11-05T18:17:46.133Z,6.32
2022-11-05T18:20:18.873Z,6.68
2022-11-05T18:22:46.587Z,6.07
2022-11-05T18:25:13.985Z,6.10
2022-11-05T18:27:40.534Z,6.05
2022-11-05T18:30:07.908Z,6.05
2022-11-05T18:32:34.334Z,6.20
2022-11-05T18:35:00.799Z,6.28
2022-11-05T18:37:27.406Z,5.90
2022-11-05T18:39:53.917Z,5.15
2022-11-05T18:42:20.657Z,5.95
2022-11-05T18:44:48.010Z,5.28
2022-11-05T18:47:14.613Z,5.32
2022-11-05T18:49:41.109Z,5.60
2022-11-05T18:52:07.647Z,5.30
2022-11-05T18:54:34.111Z,5.32
2022-11-05T18:57:00.621Z,5.05
2022-11-05T18:59:42.466Z,5.18
2022-11-05T19:02:11.021Z,4.90
2022-11-05T19:04:37.579Z,5.13
2022-11-05T19:07:05.688Z,5.00
2022-11-05T19:09:33.644Z,4.75
2022-11-05T19:12:00.548Z,5.00
2022-11-05T19:14:26.931Z,5.22
2022-11-05T19:16:53.317Z,5.05
2022-11-05T19:19:19.703Z,4.82
2022-11-05T19:21:46.067Z,4.80
2022-11-05T19:24:16.830Z,5.20
2022-11-05T19:26:43.858Z,4.88
2022-11-05T19:29:10.297Z,4.78
2022-11-05T19:31:36.901Z,5.30
2022-11-05T19:34:05.268Z,5.07
2022-11-05T19:36:32.279Z,5.25
2022-11-05T19:39:02.131Z,5.03
2022-11-05T19:41:28.593Z,4.93
2022-11-05T19:43:55.264Z,4.97
2022-11-05T19:46:23.059Z,4.30
2022-11-05T19:48:50.084Z,5.18
2022-11-05T19:51:19.767Z,4.75
2022-11-05T19:53:46.423Z,5.15
2022-11-05T19:56:18.363Z,4.70
2022-11-05T19:58:44.811Z,4.72
2022-11-05T20:01:12.649Z,4.60
2022-11-05T20:03:39.755Z,5.22
2022-11-05T20:06:11.457Z,4.97
2022-11-05T20:08:53.319Z,5.13
2022-11-05T20:11:24.921Z,4.75
2022-11-05T20:13:51.429Z,5.00
2022-11-05T20:16:22.773Z,5.03
2022-11-05T20:18:49.361Z,5.03
2022-11-05T20:21:16.052Z,5.18
2022-11-05T20:23:42.877Z,5.05
2022-11-05T20:26:10.324Z,4.40
2022-11-05T20:28:37.608Z,5.65
2022-11-05T20:31:09.229Z,4.70
2022-11-05T20:33:35.633Z,3.60
2022-11-05T20:36:04.716Z,4.40
2022-11-05T20:38:31.616Z,4.78
2022-11-05T20:40:58.678Z,4.20
2022-11-05T20:43:30.129Z,4.90
2022-11-05T20:45:58.165Z,4.47
2022-11-05T20:48:24.543Z,4.60
2022-11-05T20:50:50.901Z,5.10
2022-11-05T20:53:17.488Z,5.13
2022-11-05T20:55:45.922Z,4.43
2022-11-05T20:58:13.917Z,4.82
2022-11-05T21:00:41.280Z,4.60
2022-11-05T21:03:07.703Z,4.78
2022-11-05T21:05:35.633Z,4.85
2022-11-05T21:08:02.230Z,5.28
2022-11-05T21:10:28.700Z,4.75
2022-11-05T21:12:55.129Z,5.43
2022-11-05T21:15:23.080Z,5.00
2022-11-05T21:17:50.477Z,4.70
2022-11-05T21:20:17.050Z,5.13
2022-11-05T21:22:45.305Z,4.85
2022-11-05T21:25:12.162Z,5.22
2022-11-05T21:27:43.269Z,4.93
2022-11-05T21:30:10.881Z,4.63
2022-11-05T21:32:37.354Z,5.95
2022-11-05T21:35:05.097Z,5.32
2022-11-05T21:37:32.040Z,5.60
2022-11-05T21:39:58.441Z,5.72
2022-11-05T21:42:24.893Z,5.75
2022-11-05T21:44:53.934Z,5.95
2022-11-05T21:47:22.779Z,5.30
2022-11-05T21:49:49.159Z,5.80
2022-11-05T21:52:34.003Z,5.85
2022-11-05T21:55:18.798Z,5.05
2022-11-05T21:58:03.640Z,6.03
2022-11-05T22:00:30.058Z,5.40
2022-11-05T22:02:59.820Z,5.63
2022-11-05T22:05:27.253Z,5.88
2022-11-05T22:07:53.721Z,5.57
2022-11-05T22:10:20.244Z,5.75
2022-11-05T22:12:46.689Z,6.10
2022-11-05T22:15:13.741Z,6.13
2022-11-05T22:17:45.317Z,6.55
2022-11-05T22:20:13.155Z,6.22
2022-11-05T22:22:39.548Z,6.20
2022-11-05T22:25:06.093Z,5.55
2022-11-05T22:27:32.494Z,6.10
2022-11-05T22:29:58.876Z,6.00
2022-11-05T22:32:25.329Z,5.45
2022-11-05T22:34:51.893Z,6.60
2022-11-05T22:37:18.301Z,5.80
2022-11-05T22:39:44.730Z,6.50
2022-11-05T22:42:11.240Z,6.30
2022-11-05T22:44:37.774Z,6.88
2022-11-05T22:47:04.685Z,6.70
2022-11-05T22:49:32.095Z,6.03
2022-11-05T22:51:58.908Z,6.60
2022-11-05T22:54:25.392Z,6.20
2022-11-05T22:56:53.042Z,6.70
2022-11-05T22:59:19.436Z,6.53
2022-11-05T23:01:46.516Z,6.78
2022-11-05T23:04:13.558Z,6.57
2022-11-05T23:06:58.675Z,6.30
2022-11-05T23:09:46.964Z,6.88
2022-11-05T23:12:37.680Z,8.15
2022-11-05T23:15:06.137Z,7.53
2022-11-05T23:17:51.301Z,7.32
2022-11-05T23:20:38.814Z,6.78
2022-11-05T23:23:29.824Z,7.00
2022-11-05T23:25:59.696Z,7.25
2022-11-05T23:28:26.504Z,7.25
2022-11-05T23:31:11.444Z,7.07
2022-11-05T23:33:37.799Z,6.80
2022-11-05T23:36:39.580Z,6.72
2022-11-05T23:39:05.941Z,6.65
2022-11-05T23:41:50.944Z,6.38
2022-11-05T23:44:36.007Z,7.00
2022-11-05T23:47:21.099Z,6.40
2022-11-05T23:49:47.508Z,6.60
2022-11-05T23:52:14.087Z,7.15
2022-11-05T23:54:40.644Z,6.65
2022-11-05T23:57:07.050Z,6.47
2022-11-05T23:59:33.440Z,6.60
